Terminal Aerodrome Forecast
Issued by NWS Blacksburg, VA

Current Version | Previous Version | Graphics & Text | Print | Product List | Glossary On
Versions: 1 2 3 4 5 6 7 8 9 10 11 12 13 14 15 16 17 18 19 20 21 22 23 24 25 26 27 28 29
000
FTUS41 KRNK 140343 AAC
TAFBLF
TAF AMD
KBLF 140343Z 1404/1424 VRB03KT 1 1/2SM -RA BR OVC003
      TEMPO 1404/1406 1/4SM FG OVC002
     FM140900 18006KT 4SM -RA BR OVC008
     FM141600 23007KT 6SM -RA OVC015=

USA.gov is the U.S. government's official web portal to all federal, state and local government web resources and services.